Time;durP1;ratioP1;P1;durP2;ratioP2;P2;SDS_P1;SDS_P2;PMS_P1;PMS_P2;Temp;Humidity;BMP_temperature;BMP_pressure;BME280_temperature;BME280_humidity;BME280_pressure;Samples;Min_cycle;Max_cycle;Signal;HPM_P1;HPM_P2
2023/05/21 00:00:44;;;;;;;5.90;5.25;;;;;;;14.34;64.38;101676.47;4818843;29;20065;-81
2023/05/21 00:03:15;;;;;;;7.20;4.97;;;;;;;14.33;64.36;101671.28;4821711;29;20018;-82
2023/05/21 00:05:40;;;;;;;6.05;4.80;;;;;;;14.31;64.23;101671.47;4824213;29;20352;-83
2023/05/21 00:08:05;;;;;;;5.93;4.90;;;;;;;14.33;64.20;101676.69;4822745;29;20041;-82
2023/05/21 00:10:31;;;;;;;5.22;4.72;;;;;;;14.37;64.02;101669.84;4823778;29;20037;-82
2023/05/21 00:12:56;;;;;;;6.22;4.60;;;;;;;14.39;64.14;101665.03;4823719;29;20432;-82
2023/05/21 00:15:22;;;;;;;6.13;5.25;;;;;;;14.36;63.95;101660.88;4824728;29;20519;-82
2023/05/21 00:17:47;;;;;;;6.15;4.55;;;;;;;14.34;64.29;101660.22;4819720;29;20552;-81
2023/05/21 00:20:12;;;;;;;6.10;5.10;;;;;;;14.34;63.95;101662.13;4823204;29;20494;-81
2023/05/21 00:22:39;;;;;;;6.63;4.75;;;;;;;14.36;64.17;101660.06;4822802;29;20030;-81
2023/05/21 00:25:05;;;;;;;7.45;5.10;;;;;;;14.34;64.35;101659.41;4822507;29;20043;-82
2023/05/21 00:27:30;;;;;;;5.38;4.75;;;;;;;14.31;64.31;101652.50;4821746;29;20027;-81
2023/05/21 00:29:55;;;;;;;5.55;5.05;;;;;;;14.30;64.04;101652.72;4822180;29;20038;-82
2023/05/21 00:32:21;;;;;;;6.97;5.05;;;;;;;14.30;64.08;101652.72;4822146;29;20102;-82
2023/05/21 00:34:46;;;;;;;6.95;5.22;;;;;;;14.29;64.05;101649.19;4824405;29;20030;-81
2023/05/21 00:37:24;;;;;;;5.60;4.97;;;;;;;14.28;64.04;101639.38;4821502;29;20121;-81
2023/05/21 00:39:50;;;;;;;5.80;5.20;;;;;;;14.32;64.18;101637.09;4823586;29;20042;-82
2023/05/21 00:42:16;;;;;;;5.95;4.85;;;;;;;14.30;64.14;101641.88;4824217;29;20061;-81
2023/05/21 00:44:44;;;;;;;6.35;4.95;;;;;;;14.26;64.31;101638.75;4823074;29;20035;-81
2023/05/21 00:47:09;;;;;;;6.00;4.95;;;;;;;14.26;64.36;101633.34;4820404;29;20039;-82
2023/05/21 00:49:35;;;;;;;7.18;4.80;;;;;;;14.25;64.23;101635.19;4825062;29;20364;-81
2023/05/21 00:54:35;;;;;;;6.05;4.90;;;;;;;14.18;64.52;101625.38;4890144;24;20050;-81
2023/05/21 00:57:01;;;;;;;8.60;4.88;;;;;;;14.14;64.64;101627.66;4824535;29;20037;-81
2023/05/21 00:59:27;;;;;;;7.63;4.93;;;;;;;14.18;64.83;101625.38;4799693;29;20458;-81
2023/05/21 01:01:55;;;;;;;5.65;4.85;;;;;;;14.13;64.68;101622.44;4809861;29;20052;-81
2023/05/21 01:04:23;;;;;;;6.75;5.07;;;;;;;14.10;64.72;101624.53;4829418;29;20478;-81
2023/05/21 01:06:49;;;;;;;5.30;4.75;;;;;;;14.09;64.94;101622.84;4832485;29;20119;-82
2023/05/21 01:09:14;;;;;;;7.30;5.28;;;;;;;14.04;65.31;101619.91;4832066;29;20477;-81
2023/05/21 01:11:42;;;;;;;5.85;5.00;;;;;;;14.04;65.21;101619.06;4843794;29;20026;-81
2023/05/21 01:14:08;;;;;;;6.35;5.00;;;;;;;14.03;65.26;101618.25;4822900;29;20032;-81
2023/05/21 01:16:35;;;;;;;7.18;5.20;;;;;;;14.02;65.32;101616.56;4814529;29;20038;-81
2023/05/21 01:19:02;;;;;;;7.80;5.10;;;;;;;14.02;65.08;101619.28;4837901;29;20037;-81
2023/05/21 01:21:27;;;;;;;5.53;4.72;;;;;;;14.04;65.12;101614.50;4817559;29;20478;-81
2023/05/21 01:23:52;;;;;;;5.47;4.55;;;;;;;13.98;65.32;101615.28;4817126;29;20094;-81
2023/05/21 01:26:18;;;;;;;7.13;4.75;;;;;;;13.91;65.54;101604.44;4810673;29;20081;-81
2023/05/21 01:28:43;;;;;;;6.35;4.90;;;;;;;13.94;65.54;101614.03;4839202;29;20110;-81
2023/05/21 01:31:19;;;;;;;5.00;4.50;;;;;;;13.89;65.63;101606.50;4831984;29;20592;-81
2023/05/21 01:33:47;;;;;;;5.70;4.85;;;;;;;13.84;65.95;101600.03;4825290;29;20082;-81
2023/05/21 01:36:31;;;;;;;6.22;4.85;;;;;;;13.78;66.43;101605.19;4802734;29;20109;-81
2023/05/21 01:39:02;;;;;;;8.20;4.95;;;;;;;13.75;65.99;101600.22;4807524;29;20034;-81
2023/05/21 01:41:28;;;;;;;6.18;4.82;;;;;;;13.70;66.60;101596.41;4818407;29;20845;-80
2023/05/21 01:43:53;;;;;;;5.60;4.50;;;;;;;13.69;66.80;101600.13;4801414;29;20042;-81
2023/05/21 01:46:21;;;;;;;6.00;5.07;;;;;;;13.66;66.80;101598.69;4829365;29;20401;-81
2023/05/21 01:48:47;;;;;;;5.43;4.80;;;;;;;13.63;66.77;101599.06;4823176;29;20046;-81
2023/05/21 01:51:12;;;;;;;5.47;4.80;;;;;;;13.57;67.09;101598.00;4831688;29;20397;-80
2023/05/21 01:53:39;;;;;;;6.82;5.18;;;;;;;13.52;67.46;101596.94;4821090;29;20050;-81
2023/05/21 01:56:05;;;;;;;5.70;4.90;;;;;;;13.44;67.57;101601.44;4815481;29;20530;-81
2023/05/21 01:58:30;;;;;;;6.00;5.00;;;;;;;13.40;67.68;101594.78;4832712;29;20049;-81
2023/05/21 02:00:56;;;;;;;6.65;4.90;;;;;;;13.37;67.60;101600.56;4828284;29;20034;-81
2023/05/21 02:03:23;;;;;;;6.15;5.07;;;;;;;13.33;68.42;101596.56;4836289;29;20435;-81
2023/05/21 02:05:50;;;;;;;7.05;5.25;;;;;;;13.27;68.65;101598.19;4821583;29;20030;-81
2023/05/21 02:08:18;;;;;;;5.32;4.82;;;;;;;13.23;68.73;101598.78;4832104;29;20030;-81
2023/05/21 02:10:44;;;;;;;5.93;5.07;;;;;;;13.16;68.83;101594.16;4829779;29;20094;-81
2023/05/21 02:13:09;;;;;;;8.65;5.72;;;;;;;13.09;69.39;101585.16;4834695;29;20754;-81
2023/05/21 02:15:35;;;;;;;6.97;5.22;;;;;;;13.01;69.41;101596.13;4827303;29;20036;-80
2023/05/21 02:18:00;;;;;;;7.13;5.40;;;;;;;12.93;69.47;101591.69;4834735;29;20036;-81
2023/05/21 02:20:25;;;;;;;6.57;5.43;;;;;;;12.87;70.07;101582.50;4833398;29;20034;-81
2023/05/21 02:22:51;;;;;;;7.07;6.00;;;;;;;12.82;70.10;101587.63;4828612;29;20105;-81
2023/05/21 02:25:17;;;;;;;6.88;5.57;;;;;;;12.77;70.34;101584.66;4829000;29;20038;-81
2023/05/21 02:27:43;;;;;;;8.07;5.70;;;;;;;12.68;70.99;101589.38;4835164;29;20462;-81
2023/05/21 02:30:10;;;;;;;7.70;5.38;;;;;;;12.64;71.02;101584.53;4836567;29;20124;-81
2023/05/21 02:32:35;;;;;;;6.30;5.25;;;;;;;12.64;71.10;101581.84;4831156;29;20026;-80
2023/05/21 02:35:03;;;;;;;6.50;5.05;;;;;;;12.57;71.24;101593.41;4833816;29;20091;-80
2023/05/21 02:37:32;;;;;;;6.72;5.40;;;;;;;12.53;71.38;101575.91;4831712;29;20038;-81
2023/05/21 02:39:58;;;;;;;7.03;5.45;;;;;;;12.49;71.87;101574.66;4826911;29;20407;-81
2023/05/21 02:42:23;;;;;;;6.93;5.32;;;;;;;12.45;71.70;101578.75;4837425;29;20037;-81
2023/05/21 02:44:49;;;;;;;7.07;5.78;;;;;;;12.40;71.92;101576.63;4831816;29;20068;-81
2023/05/21 02:47:15;;;;;;;6.13;5.00;;;;;;;12.41;71.79;101581.00;4830269;29;20117;-82
2023/05/21 02:49:40;;;;;;;6.80;5.47;;;;;;;12.36;72.14;101579.88;4835437;29;20126;-83
2023/05/21 02:52:06;;;;;;;6.50;5.43;;;;;;;12.33;72.67;101569.47;4828511;29;20043;-81
2023/05/21 02:54:31;;;;;;;6.38;5.47;;;;;;;12.30;72.58;101575.25;4833106;29;20064;-81
2023/05/21 02:56:56;;;;;;;6.60;5.85;;;;;;;12.28;72.80;101573.59;4828689;29;20046;-77
2023/05/21 02:59:22;;;;;;;8.90;5.72;;;;;;;12.25;72.46;101565.88;4834736;29;20036;-77
2023/05/21 03:01:48;;;;;;;6.05;5.35;;;;;;;12.25;72.62;101565.03;4823047;29;20042;-77
2023/05/21 03:04:13;;;;;;;6.18;5.57;;;;;;;12.21;73.14;101569.97;4828912;29;20048;-77
2023/05/21 03:06:39;;;;;;;6.78;5.55;;;;;;;12.21;73.25;101569.97;4821588;29;20118;-77
2023/05/21 03:09:04;;;;;;;7.15;5.72;;;;;;;12.16;73.30;101572.41;4832848;29;20030;-77
2023/05/21 03:11:30;;;;;;;7.95;6.00;;;;;;;12.11;73.41;101572.97;4837466;29;20045;-79
2023/05/21 03:13:55;;;;;;;6.78;5.53;;;;;;;12.09;73.66;101563.41;4833878;29;20030;-78
2023/05/21 03:16:21;;;;;;;6.55;5.75;;;;;;;12.10;73.37;101570.47;4829403;29;20032;-79
2023/05/21 03:18:46;;;;;;;8.18;5.75;;;;;;;12.03;73.68;101559.59;4823560;29;20026;-82
2023/05/21 03:21:14;;;;;;;6.85;5.50;;;;;;;11.96;73.64;101562.19;4834964;29;20074;-82
2023/05/21 03:23:40;;;;;;;7.18;5.28;;;;;;;11.92;73.76;101558.19;4832510;29;20112;-82
2023/05/21 03:26:06;;;;;;;7.97;5.80;;;;;;;11.86;74.43;101558.09;4828307;29;20083;-83
2023/05/21 03:28:31;;;;;;;8.48;6.07;;;;;;;11.88;74.36;101561.44;4832144;29;21751;-82
2023/05/21 03:30:57;;;;;;;7.38;5.93;;;;;;;11.86;74.58;101564.31;4832862;29;20033;-83
2023/05/21 03:33:22;;;;;;;6.95;5.53;;;;;;;11.81;74.62;101564.06;4834485;29;20038;-83
2023/05/21 03:35:47;;;;;;;6.70;6.00;;;;;;;11.76;74.66;101555.69;4824598;29;20026;-82
2023/05/21 03:38:13;;;;;;;8.27;5.72;;;;;;;11.75;74.62;101568.31;4838423;29;20044;-82
2023/05/21 03:40:38;;;;;;;7.15;6.10;;;;;;;11.73;74.88;101565.00;4830788;29;20364;-82
2023/05/21 03:43:05;;;;;;;6.78;5.80;;;;;;;11.70;74.88;101561.81;4836588;29;20030;-83
2023/05/21 03:45:31;;;;;;;7.75;6.05;;;;;;;11.69;75.41;101563.69;4838236;29;20451;-83
2023/05/21 03:47:56;;;;;;;7.00;6.03;;;;;;;11.70;75.39;101564.53;4827144;29;20030;-82
2023/05/21 03:50:21;;;;;;;7.57;5.65;;;;;;;11.66;75.35;101556.81;4827125;29;20034;-82
2023/05/21 03:52:47;;;;;;;7.07;6.03;;;;;;;11.65;75.59;101554.31;4830047;29;20050;-82
2023/05/21 03:55:14;;;;;;;6.70;6.00;;;;;;;11.64;75.34;101558.03;4836884;29;20731;-82
2023/05/21 03:57:40;;;;;;;8.48;6.15;;;;;;;11.62;75.38;101566.31;4830971;29;20033;-82
2023/05/21 04:00:07;;;;;;;8.45;6.70;;;;;;;11.65;75.66;101563.22;4829732;29;20038;-83
2023/05/21 04:02:33;;;;;;;7.63;6.45;;;;;;;11.63;75.94;101565.28;4838591;29;20094;-83
2023/05/21 04:04:58;;;;;;;8.57;6.53;;;;;;;11.64;75.94;101560.72;4830715;29;20025;-82
2023/05/21 04:07:28;;;;;;;8.95;6.47;;;;;;;11.63;75.60;101564.44;4828136;29;20026;-82
2023/05/21 04:09:54;;;;;;;6.85;5.97;;;;;;;11.66;75.49;101569.47;4832770;29;20041;-83
2023/05/21 04:12:20;;;;;;;8.45;6.50;;;;;;;11.66;75.88;101564.06;4840395;29;20530;-82
2023/05/21 04:14:46;;;;;;;7.57;6.43;;;;;;;11.70;75.69;101569.91;4827194;29;20026;-82
2023/05/21 04:17:14;;;;;;;8.68;6.35;;;;;;;11.72;75.93;101576.81;4829344;29;20033;-82
2023/05/21 04:19:39;;;;;;;7.72;6.55;;;;;;;11.72;75.60;101568.72;4833703;29;20026;-82
2023/05/21 04:22:05;;;;;;;6.95;6.20;;;;;;;11.76;75.55;101569.19;4831538;29;20038;-82
2023/05/21 04:24:30;;;;;;;7.45;6.38;;;;;;;11.78;75.92;101577.94;4827311;29;20437;-83
2023/05/21 04:26:59;;;;;;;10.15;7.13;;;;;;;11.80;75.87;101582.09;4833654;29;20037;-82
2023/05/21 04:29:25;;;;;;;10.73;6.75;;;;;;;11.82;75.86;101580.06;4836406;29;20038;-82
2023/05/21 04:31:51;;;;;;;8.75;6.70;;;;;;;11.87;75.71;101581.38;4833412;29;20034;-83
2023/05/21 04:34:16;;;;;;;8.30;6.65;;;;;;;11.92;75.33;101582.47;4836538;29;20056;-82
2023/05/21 04:36:44;;;;;;;8.77;6.78;;;;;;;11.98;75.36;101587.16;4841959;29;20081;-82
2023/05/21 04:39:12;;;;;;;9.20;6.80;;;;;;;12.01;75.30;101577.84;4838008;29;20034;-83
2023/05/21 04:41:38;;;;;;;8.38;6.97;;;;;;;12.02;75.59;101578.66;4835804;29;20030;-82
2023/05/21 04:44:07;;;;;;;8.43;6.90;;;;;;;12.06;75.44;101579.97;4837425;29;20081;-83
2023/05/21 04:46:33;;;;;;;9.38;6.47;;;;;;;12.07;74.89;101589.72;4831726;29;20022;-82
2023/05/21 04:49:01;;;;;;;9.38;7.00;;;;;;;12.12;74.77;101580.03;4823340;29;20533;-82
2023/05/21 04:51:27;;;;;;;9.38;6.95;;;;;;;12.17;74.72;101586.72;4830622;29;20782;-83
2023/05/21 04:53:52;;;;;;;8.68;7.35;;;;;;;12.21;74.72;101588.84;4832432;29;20540;-83
2023/05/21 04:56:18;;;;;;;8.68;6.95;;;;;;;12.25;74.76;101583.94;4842209;29;20028;-82
2023/05/21 04:58:44;;;;;;;7.88;7.03;;;;;;;12.27;74.51;101588.09;4835194;29;20064;-82
2023/05/21 05:01:11;;;;;;;8.05;7.25;;;;;;;12.31;74.43;101583.16;4831535;29;20431;-82
2023/05/21 05:03:36;;;;;;;7.50;6.70;;;;;;;12.35;74.58;101580.94;4831898;29;20486;-82
2023/05/21 05:06:03;;;;;;;10.38;6.63;;;;;;;12.38;74.70;101575.97;4826054;29;20035;-82
2023/05/21 05:08:28;;;;;;;7.38;6.57;;;;;;;12.50;73.78;101576.31;4829124;29;20036;-82
2023/05/21 05:10:54;;;;;;;7.60;6.78;;;;;;;12.55;73.58;101575.72;4842324;29;20038;-82
2023/05/21 05:13:19;;;;;;;7.95;7.03;;;;;;;12.61;73.84;101571.41;4829091;29;20379;-81
2023/05/21 05:15:45;;;;;;;8.20;7.22;;;;;;;12.63;73.88;101564.78;4833185;29;20415;-82
2023/05/21 05:18:11;;;;;;;7.60;6.80;;;;;;;12.79;73.27;101573.69;4837680;29;20410;-83
2023/05/21 05:20:36;;;;;;;7.45;6.28;;;;;;;12.93;73.09;101571.91;4837934;29;20062;-82
2023/05/21 05:23:01;;;;;;;8.60;6.78;;;;;;;13.00;72.57;101570.13;4831579;29;20098;-82
2023/05/21 05:25:27;;;;;;;10.50;7.35;;;;;;;13.01;72.58;101560.97;4837968;29;20038;-83
2023/05/21 05:27:52;;;;;;;9.40;6.93;;;;;;;13.07;72.24;101568.28;4831591;29;20038;-83
2023/05/21 05:30:18;;;;;;;9.63;7.43;;;;;;;13.05;72.63;101570.38;4826890;29;20027;-82
2023/05/21 05:32:44;;;;;;;7.38;6.35;;;;;;;13.14;72.21;101573.75;4841981;29;20116;-83
2023/05/21 05:35:09;;;;;;;9.90;6.85;;;;;;;13.19;72.19;101569.44;4839226;29;20125;-83
2023/05/21 05:37:35;;;;;;;10.43;7.00;;;;;;;13.26;71.94;101574.88;4834116;29;20086;-83
2023/05/21 05:40:00;;;;;;;9.63;6.72;;;;;;;13.28;72.00;101570.13;4842719;29;20041;-83
2023/05/21 05:42:25;;;;;;;7.38;6.50;;;;;;;13.35;71.11;101570.97;4836913;29;20397;-83
2023/05/21 05:44:51;;;;;;;7.70;6.88;;;;;;;13.35;71.59;101567.47;4832893;29;20035;-81
2023/05/21 05:47:16;;;;;;;8.90;6.68;;;;;;;13.38;71.49;101572.47;4828223;29;20030;-81
2023/05/21 05:49:42;;;;;;;8.43;7.10;;;;;;;13.41;71.39;101564.00;4827364;29;20026;-81
2023/05/21 05:52:07;;;;;;;9.60;6.78;;;;;;;13.47;70.97;101557.78;4834807;29;20038;-81
2023/05/21 05:54:32;;;;;;;7.85;6.72;;;;;;;13.50;71.50;101561.97;4828495;29;20050;-77
2023/05/21 05:56:58;;;;;;;7.88;6.38;;;;;;;13.61;70.75;101555.16;4840590;29;20064;-81
2023/05/21 05:59:23;;;;;;;8.85;6.93;;;;;;;13.65;70.24;101553.72;4829051;29;20092;-80
2023/05/21 06:01:48;;;;;;;9.95;6.70;;;;;;;13.77;69.93;101554.81;4836323;29;21020;-80
2023/05/21 06:04:14;;;;;;;9.25;7.57;;;;;;;13.67;70.25;101558.94;4835731;29;20049;-80
2023/05/21 06:06:39;;;;;;;9.50;7.40;;;;;;;13.64;70.31;101555.59;4833791;29;20030;-81
2023/05/21 06:09:05;;;;;;;8.90;7.50;;;;;;;13.74;69.89;101562.50;4827599;29;20123;-81
2023/05/21 06:11:30;;;;;;;10.10;7.28;;;;;;;13.89;69.79;101563.19;4832755;29;20053;-81
2023/05/21 06:13:56;;;;;;;10.60;7.28;;;;;;;14.02;69.22;101569.72;4839200;29;20038;-80
2023/05/21 06:16:21;;;;;;;9.38;7.05;;;;;;;14.28;68.61;101566.28;4835631;29;20128;-80
2023/05/21 06:18:46;;;;;;;9.05;7.20;;;;;;;14.48;67.69;101560.88;4835399;29;20037;-79
2023/05/21 06:21:12;;;;;;;10.38;7.57;;;;;;;14.74;66.95;101566.56;4829981;29;20035;-80
2023/05/21 06:23:37;;;;;;;8.75;6.90;;;;;;;15.07;65.98;101576.59;4833840;29;20030;-82
2023/05/21 06:26:03;;;;;;;8.07;7.03;;;;;;;15.30;64.94;101568.84;4834895;29;20477;-80
2023/05/21 06:28:28;;;;;;;7.78;6.85;;;;;;;15.63;63.95;101569.00;4834413;29;20030;-83
2023/05/21 06:30:54;;;;;;;12.20;7.40;;;;;;;15.81;63.38;101563.72;4829921;29;20046;-82
2023/05/21 06:33:20;;;;;;;10.10;6.72;;;;;;;15.87;63.28;101557.47;4827443;29;20397;-84
2023/05/21 06:35:46;;;;;;;8.52;6.85;;;;;;;15.66;62.99;101563.16;4821535;29;20045;-78
2023/05/21 06:38:11;;;;;;;8.45;7.13;;;;;;;15.65;63.37;101565.00;4846833;29;20090;-84
2023/05/21 06:40:36;;;;;;;10.07;7.18;;;;;;;15.80;62.91;101561.19;4844337;29;20038;-77
2023/05/21 06:43:03;;;;;;;8.43;7.15;;;;;;;15.86;62.53;101566.66;4839866;29;20034;-80
2023/05/21 06:45:29;;;;;;;10.45;7.20;;;;;;;16.11;61.92;101568.63;4832853;29;20112;-79
2023/05/21 06:47:54;;;;;;;9.25;7.25;;;;;;;16.44;61.08;101564.88;4828854;29;20125;-79
2023/05/21 06:50:19;;;;;;;8.63;6.88;;;;;;;16.73;59.87;101565.34;4834870;29;20048;-79
2023/05/21 06:52:45;;;;;;;8.80;7.07;;;;;;;16.79;59.81;101555.47;4829966;29;20134;-80
2023/05/21 06:55:10;;;;;;;8.68;6.88;;;;;;;16.93;59.38;101569.78;4836060;29;20026;-80
2023/05/21 06:57:36;;;;;;;7.88;7.05;;;;;;;17.42;58.20;101565.38;4830761;29;20106;-80
2023/05/21 07:00:02;;;;;;;8.00;6.78;;;;;;;18.60;55.32;101560.75;4829742;29;20129;-81
2023/05/21 07:02:27;;;;;;;7.85;7.15;;;;;;;19.28;52.75;101561.31;4830136;29;20084;-81
2023/05/21 07:04:54;;;;;;;11.48;6.90;;;;;;;19.14;52.97;101560.72;4835190;29;20386;-81
2023/05/21 07:07:19;;;;;;;8.25;7.13;;;;;;;19.20;52.39;101559.78;4822657;29;20050;-80
2023/05/21 07:09:45;;;;;;;8.63;6.60;;;;;;;19.38;52.27;101558.00;4828088;29;20049;-81
2023/05/21 07:12:10;;;;;;;9.32;7.10;;;;;;;19.37;51.62;101553.59;4832575;29;20034;-84
2023/05/21 07:14:36;;;;;;;8.80;6.75;;;;;;;19.93;51.45;101561.38;4821870;29;20029;-82
2023/05/21 07:17:01;;;;;;;7.45;6.65;;;;;;;20.50;49.83;101559.66;4834770;29;20211;-82
2023/05/21 07:19:26;;;;;;;8.18;6.97;;;;;;;20.97;48.29;101564.88;4840278;29;20036;-82
2023/05/21 07:21:52;;;;;;;7.82;6.60;;;;;;;20.91;48.39;101565.84;4836255;29;20030;-84
2023/05/21 07:24:17;;;;;;;9.98;6.97;;;;;;;20.37;49.35;101555.34;4835808;29;20030;-82
2023/05/21 07:26:42;;;;;;;8.93;6.85;;;;;;;20.81;49.02;101563.78;4828582;29;20055;-82
2023/05/21 07:29:08;;;;;;;8.43;6.80;;;;;;;21.15;48.07;101558.28;4835265;29;20026;-82
2023/05/21 07:31:33;;;;;;;9.13;6.30;;;;;;;21.48;46.52;101556.56;4833009;29;20434;-84
2023/05/21 07:33:59;;;;;;;8.95;7.10;;;;;;;21.47;46.38;101562.28;4823321;29;20758;-84
2023/05/21 07:36:25;;;;;;;9.93;7.40;;;;;;;20.44;48.68;101556.84;4831010;29;20114;-84
2023/05/21 07:38:51;;;;;;;8.57;7.50;;;;;;;20.31;49.05;101551.66;4838232;29;20085;-84
2023/05/21 07:41:17;;;;;;;9.15;7.28;;;;;;;20.55;49.16;101557.03;4838052;29;20504;-84
2023/05/21 07:43:42;;;;;;;9.35;6.90;;;;;;;20.97;48.49;101562.13;4824402;29;20023;-85
2023/05/21 07:46:08;;;;;;;10.55;7.55;;;;;;;20.52;49.09;101558.34;4831854;29;20482;-84
2023/05/21 07:48:33;;;;;;;9.85;7.72;;;;;;;20.06;49.97;101550.13;4832715;29;20054;-84
2023/05/21 07:50:59;;;;;;;10.43;8.38;;;;;;;20.03;50.11;101545.16;4837372;29;20034;-83
2023/05/21 07:53:24;;;;;;;9.15;7.82;;;;;;;20.14;49.90;101537.97;4842989;29;20047;-84
2023/05/21 07:55:50;;;;;;;10.18;7.60;;;;;;;20.46;48.95;101545.66;4836401;29;20037;-84
2023/05/21 07:58:16;;;;;;;9.38;7.53;;;;;;;20.56;49.33;101551.28;4839147;29;20095;-84
2023/05/21 08:00:46;;;;;;;10.98;7.57;;;;;;;20.67;48.39;101538.63;4821766;29;20058;-84
2023/05/21 08:03:17;;;;;;;10.40;8.10;;;;;;;20.52;48.71;101541.94;4804992;29;20039;-84
2023/05/21 08:05:47;;;;;;;9.85;8.02;;;;;;;20.37;49.50;101534.28;4826669;29;20033;-84
2023/05/21 08:08:13;;;;;;;10.52;7.70;;;;;;;20.49;49.47;101541.59;4820907;29;20056;-84
2023/05/21 08:10:38;;;;;;;11.85;7.70;;;;;;;20.67;49.61;101544.09;4838371;29;20037;-84
2023/05/21 08:13:04;;;;;;;8.85;7.38;;;;;;;21.01;48.81;101551.50;4824736;29;20038;-84
2023/05/21 08:15:29;;;;;;;10.57;7.72;;;;;;;21.43;47.77;101540.06;4828733;29;20018;-84
2023/05/21 08:17:55;;;;;;;8.43;7.25;;;;;;;21.20;48.29;101533.72;4837905;29;20037;-84
2023/05/21 08:20:20;;;;;;;11.52;7.82;;;;;;;21.17;48.51;101530.69;4837599;29;20030;-85
2023/05/21 08:22:47;;;;;;;10.57;7.95;;;;;;;21.31;47.83;101534.69;4831025;29;20159;-84
2023/05/21 08:25:12;;;;;;;11.52;8.07;;;;;;;21.02;48.36;101531.25;4836229;29;20433;-84
2023/05/21 08:27:37;;;;;;;11.15;8.10;;;;;;;21.31;48.15;101537.44;4836876;29;20499;-83
2023/05/21 08:30:04;;;;;;;12.05;8.57;;;;;;;21.26;47.74;101536.53;4834088;29;20037;-84
2023/05/21 08:32:29;;;;;;;9.60;8.20;;;;;;;21.33;48.16;101531.69;4841369;29;20034;-84
2023/05/21 08:34:56;;;;;;;12.75;8.60;;;;;;;21.53;47.06;101539.38;4831735;29;20056;-83
2023/05/21 08:37:21;;;;;;;9.05;7.85;;;;;;;21.91;47.06;101532.16;4823488;29;20030;-83
2023/05/21 08:39:47;;;;;;;8.57;7.68;;;;;;;22.16;45.99;101533.53;4831623;29;20045;-83
2023/05/21 08:42:18;;;;;;;10.55;8.52;;;;;;;22.52;45.46;101539.41;4836118;29;20041;-84
2023/05/21 08:44:45;;;;;;;12.60;8.20;;;;;;;23.10;44.27;101536.00;4807779;29;20192;-85
2023/05/21 08:47:10;;;;;;;10.45;8.80;;;;;;;23.16;43.75;101539.59;4815095;29;20038;-84
2023/05/21 08:49:36;;;;;;;10.02;8.23;;;;;;;23.29;43.31;101532.84;4807361;29;20036;-84
2023/05/21 08:52:01;;;;;;;9.88;8.35;;;;;;;23.71;43.02;101542.09;4814834;29;20042;-84
2023/05/21 08:54:27;;;;;;;11.35;8.40;;;;;;;24.07;42.25;101536.72;4819933;29;20125;-84
2023/05/21 08:56:53;;;;;;;8.95;8.02;;;;;;;24.81;40.30;101537.31;4817375;29;20147;-83
2023/05/21 08:59:18;;;;;;;9.23;8.32;;;;;;;25.37;39.38;101532.00;4821187;29;20151;-83
2023/05/21 09:01:44;;;;;;;12.80;9.02;;;;;;;25.28;39.18;101535.31;4819412;29;20394;-84
2023/05/21 09:04:10;;;;;;;9.50;8.50;;;;;;;25.86;38.34;101528.47;4833196;29;20117;-84
2023/05/21 09:06:36;;;;;;;10.43;8.57;;;;;;;26.80;37.05;101536.94;4816957;29;20032;-84
2023/05/21 09:09:06;;;;;;;12.77;8.70;;;;;;;27.32;35.84;101540.00;4796814;29;20035;-83
2023/05/21 09:11:31;;;;;;;10.23;9.02;;;;;;;26.89;35.94;101542.66;4821755;29;20551;-84
2023/05/21 09:13:57;;;;;;;10.27;8.63;;;;;;;26.95;36.48;101533.22;4814586;29;20038;-83
2023/05/21 09:16:22;;;;;;;10.45;8.35;;;;;;;26.06;37.98;101531.41;4814421;29;20355;-83
2023/05/21 09:18:48;;;;;;;10.32;8.85;;;;;;;26.12;38.02;101530.28;4821040;29;20046;-83
2023/05/21 09:21:26;;;;;;;12.05;9.20;;;;;;;26.04;38.07;101531.69;4829590;29;20084;-83
2023/05/21 09:23:55;;;;;;;12.23;9.55;;;;;;;25.44;38.94;101532.53;4833792;29;20049;-84
2023/05/21 09:26:21;;;;;;;11.35;9.05;;;;;;;25.41;40.23;101527.56;4832453;29;20038;-84
2023/05/21 09:28:47;;;;;;;11.50;9.48;;;;;;;25.72;38.80;101516.44;4831301;29;20026;-84
2023/05/21 09:31:14;;;;;;;14.88;10.00;;;;;;;25.76;38.83;101520.28;4828127;29;20034;-83
2023/05/21 09:33:45;;;;;;;12.75;10.35;;;;;;;25.48;39.14;101522.59;4831797;29;20023;-83
2023/05/21 09:36:10;;;;;;;13.25;10.52;;;;;;;26.32;38.13;101518.28;4828737;29;20049;-83
2023/05/21 09:38:35;;;;;;;17.48;11.15;;;;;;;26.40;37.87;101527.88;4823400;29;20475;-84
2023/05/21 09:41:04;;;;;;;12.80;10.20;;;;;;;26.83;37.20;101528.09;4808017;29;20034;-81
2023/05/21 09:43:29;;;;;;;12.07;10.82;;;;;;;26.25;38.21;101523.31;4832472;29;20086;-82
2023/05/21 09:45:55;;;;;;;11.98;10.55;;;;;;;26.58;37.20;101523.59;4824261;29;20060;-82
2023/05/21 09:48:37;;;;;;;12.65;11.35;;;;;;;25.54;38.62;101518.72;4833394;29;20378;-82
2023/05/21 09:51:15;;;;;;;17.48;11.48;;;;;;;26.12;38.10;101508.22;4837548;29;20505;-81
2023/05/21 09:53:54;;;;;;;11.95;10.15;;;;;;;25.96;39.23;101504.69;4822230;29;20039;-82
2023/05/21 09:56:23;;;;;;;11.98;10.60;;;;;;;26.16;39.23;101501.03;4822275;29;20095;-82
2023/05/21 09:58:56;;;;;;;12.77;10.93;;;;;;;27.01;37.20;101506.34;4822563;29;20505;-82
2023/05/21 10:01:22;;;;;;;15.35;10.85;;;;;;;26.72;37.70;101507.19;4827371;29;20038;-81
2023/05/21 10:03:58;;;;;;;13.57;12.10;;;;;;;26.26;37.52;101503.69;4831065;29;20042;-79
2023/05/21 10:06:27;;;;;;;14.10;11.30;;;;;;;26.66;37.31;101503.63;4833394;29;20030;-79
2023/05/21 10:08:55;;;;;;;13.55;11.90;;;;;;;26.62;37.07;101511.66;4829287;29;20062;-80
2023/05/21 10:11:22;;;;;;;12.52;11.32;;;;;;;27.00;36.51;101494.50;4829975;29;20041;-80
2023/05/21 10:13:48;;;;;;;13.45;11.68;;;;;;;26.93;36.62;101488.50;4834822;29;20509;-79
2023/05/21 10:16:13;;;;;;;14.23;12.10;;;;;;;26.77;36.92;101483.09;4835681;29;20025;-80
2023/05/21 10:18:39;;;;;;;13.57;11.02;;;;;;;27.14;36.93;101488.25;4797110;29;20048;-79
2023/05/21 10:21:06;;;;;;;13.80;11.80;;;;;;;26.44;38.01;101488.38;4815437;29;20489;-80
2023/05/21 10:23:31;;;;;;;12.27;10.68;;;;;;;26.26;38.76;101480.81;4823560;29;20034;-80
2023/05/21 10:25:56;;;;;;;13.38;11.57;;;;;;;27.01;37.01;101478.72;4812695;29;20541;-79
2023/05/21 10:28:22;;;;;;;15.48;12.80;;;;;;;26.45;37.66;101476.22;4811504;29;20034;-83
2023/05/21 10:30:47;;;;;;;14.43;12.82;;;;;;;26.22;38.50;101472.25;4798627;29;20700;-80
2023/05/21 10:33:15;;;;;;;14.32;12.80;;;;;;;26.01;38.51;101466.03;4817291;29;20043;-80
2023/05/21 10:35:40;;;;;;;14.25;12.75;;;;;;;26.27;38.10;101461.19;4831055;29;20479;-80
2023/05/21 10:38:08;;;;;;;13.38;11.25;;;;;;;26.64;38.00;101468.03;4821465;29;20042;-79
2023/05/21 10:40:34;;;;;;;13.98;12.32;;;;;;;26.29;38.94;101470.00;4821664;29;20490;-79
2023/05/21 10:43:13;;;;;;;14.82;12.60;;;;;;;26.55;38.08;101460.66;4812592;29;20214;-80
2023/05/21 10:46:00;;;;;;;15.38;12.60;;;;;;;27.08;37.06;101455.16;4815002;29;20029;-79
2023/05/21 10:48:45;;;;;;;14.82;12.00;;;;;;;26.33;38.19;101459.19;4826686;29;20117;-79
2023/05/21 10:51:22;;;;;;;15.83;13.30;;;;;;;26.62;38.13;101448.16;4812160;29;20046;-79
2023/05/21 10:54:17;;;;;;;15.88;12.45;;;;;;;27.69;35.81;101452.72;4819676;29;20437;-80
2023/05/21 10:57:18;;;;;;;14.98;12.40;;;;;;;28.03;35.92;101452.78;4809079;29;20048;-80
2023/05/21 10:59:46;;;;;;;12.82;11.52;;;;;;;26.97;37.50;101448.09;4823758;29;20447;-81
2023/05/21 11:02:13;;;;;;;13.88;12.20;;;;;;;26.43;37.69;101459.13;4815547;29;20349;-81
2023/05/21 11:04:41;;;;;;;15.10;13.50;;;;;;;26.05;38.94;101458.84;4812090;29;20352;-81
2023/05/21 11:07:07;;;;;;;14.00;11.85;;;;;;;25.99;39.36;101437.91;4822724;29;20026;-81
2023/05/21 11:09:32;;;;;;;14.20;12.20;;;;;;;25.83;39.41;101446.31;4813160;29;20494;-81
2023/05/21 11:11:58;;;;;;;14.18;12.15;;;;;;;25.96;39.23;101447.59;4811333;29;20030;-81
2023/05/21 11:14:31;;;;;;;15.27;13.48;;;;;;;25.53;39.90;101448.16;4814540;29;20362;-80
2023/05/21 11:17:38;;;;;;;17.38;13.27;;;;;;;25.60;40.70;101452.50;4805623;29;20022;-80
2023/05/21 11:20:07;;;;;;;15.32;13.10;;;;;;;26.33;38.96;101450.91;4819640;29;20121;-80
2023/05/21 11:22:33;;;;;;;15.25;12.77;;;;;;;26.73;38.06;101445.31;4807048;29;20100;-80